createdAt,value
2019-04-21T00:00:15.101Z,4.70
2019-04-21T00:02:44.078Z,4.70
2019-04-21T00:05:52.984Z,4.70
2019-04-21T00:08:25.836Z,4.70
2019-04-21T00:10:47.952Z,4.70
2019-04-21T00:13:17.863Z,4.80
2019-04-21T00:15:38.679Z,4.80
2019-04-21T00:18:11.063Z,4.80
2019-04-21T00:20:44.869Z,4.70
2019-04-21T00:23:24.052Z,4.70
2019-04-21T00:25:52.829Z,4.80
2019-04-21T00:28:35.897Z,4.80
2019-04-21T00:31:00.114Z,4.80
2019-04-21T00:33:19.171Z,4.80
2019-04-21T00:35:49.986Z,4.80
2019-04-21T00:38:32.348Z,4.80
2019-04-21T00:41:11.015Z,4.80
2019-04-21T00:43:28.016Z,4.80
2019-04-21T00:45:53.314Z,4.80
2019-04-21T00:48:37.872Z,4.60
2019-04-21T00:51:23.060Z,4.40
2019-04-21T00:53:51.589Z,4.30
2019-04-21T00:56:36.631Z,4.10
2019-04-21T00:58:49.875Z,4.00
2019-04-21T01:01:16.165Z,3.90
2019-04-21T01:03:52.990Z,3.90
2019-04-21T01:06:22.738Z,3.80
2019-04-21T01:08:47.393Z,3.70
2019-04-21T01:11:17.909Z,3.80
2019-04-21T01:13:53.399Z,3.80
2019-04-21T01:16:21.214Z,3.60
2019-04-21T01:18:50.119Z,3.50
2019-04-21T01:20:58.041Z,3.50
2019-04-21T01:23:27.550Z,3.40
2019-04-21T01:26:13.564Z,3.40
2019-04-21T01:28:41.053Z,3.40
2019-04-21T01:31:15.391Z,3.40
2019-04-21T01:33:50.841Z,3.30
2019-04-21T01:36:14.618Z,3.20
2019-04-21T01:38:53.788Z,3.20
2019-04-21T01:41:20.401Z,3.10
2019-04-21T01:43:49.139Z,3.00
2019-04-21T01:46:17.629Z,3.00
2019-04-21T01:48:44.381Z,3.00
2019-04-21T01:51:12.926Z,2.90
2019-04-21T01:53:56.519Z,2.90
2019-04-21T01:56:31.811Z,2.90
2019-04-21T01:58:51.415Z,3.10
2019-04-21T02:01:35.315Z,3.00
2019-04-21T02:04:01.134Z,3.10
2019-04-21T02:06:33.445Z,3.10
2019-04-21T02:08:59.746Z,3.20
2019-04-21T02:11:35.478Z,3.20
2019-04-21T02:14:26.009Z,3.20
2019-04-21T02:16:34.017Z,3.30
2019-04-21T02:18:58.150Z,3.30
2019-04-21T02:21:27.653Z,3.30
2019-04-21T02:24:11.759Z,3.20
2019-04-21T02:26:56.129Z,3.10
2019-04-21T02:29:06.870Z,3.00
2019-04-21T02:31:48.773Z,2.90
2019-04-21T02:34:32.236Z,2.90
2019-04-21T02:36:55.762Z,2.90
2019-04-21T02:41:48.475Z,2.80
2019-04-21T02:44:42.981Z,2.70
2019-04-21T02:47:14.644Z,2.70
2019-04-21T02:49:45.178Z,2.60
2019-04-21T02:52:16.606Z,2.60
2019-04-21T03:02:17.124Z,2.50
2019-04-21T03:07:19.995Z,2.40
2019-04-21T03:12:19.661Z,2.40
2019-04-21T03:20:14.619Z,2.30
2019-04-21T03:25:22.834Z,2.20
2019-04-21T03:39:59.281Z,2.00
2019-04-21T03:44:52.032Z,1.80
2019-04-21T03:50:04.716Z,1.80
2019-04-21T03:52:30.273Z,1.80
2019-04-21T03:58:05.115Z,1.60
2019-04-21T04:00:42.674Z,1.50
2019-04-21T04:03:13.729Z,1.40
2019-04-21T04:05:58.515Z,1.40
2019-04-21T04:11:12.493Z,1.50
2019-04-21T04:16:15.344Z,1.50
2019-04-21T04:23:42.452Z,1.50
2019-04-21T04:26:06.772Z,1.50
2019-04-21T04:28:49.766Z,1.50
2019-04-21T04:31:18.053Z,1.60
2019-04-21T04:36:10.868Z,1.60
2019-04-21T04:38:56.296Z,1.60
2019-04-21T04:41:15.364Z,1.60
2019-04-21T04:43:39.534Z,1.50
2019-04-21T04:46:07.182Z,1.60
2019-04-21T04:48:45.600Z,1.70
2019-04-21T04:51:39.961Z,1.80
2019-04-21T04:53:43.884Z,2.00
2019-04-21T04:56:20.622Z,2.00
2019-04-21T04:59:18.641Z,2.10
2019-04-21T05:01:21.482Z,2.10
2019-04-21T05:03:48.982Z,2.20
2019-04-21T05:06:34.839Z,2.30
2019-04-21T05:11:44.475Z,2.50
2019-04-21T05:14:02.685Z,2.60
2019-04-21T05:16:39.816Z,2.60
2019-04-21T05:19:06.544Z,2.70
2019-04-21T05:21:31.891Z,2.80
2019-04-21T05:23:45.714Z,2.90
2019-04-21T05:26:13.559Z,3.00
2019-04-21T05:28:42.054Z,3.20
2019-04-21T05:31:38.474Z,3.40
2019-04-21T05:34:03.124Z,3.60
2019-04-21T05:36:38.164Z,3.80
2019-04-21T05:39:18.450Z,3.90
2019-04-21T05:41:43.194Z,4.10
2019-04-21T05:44:38.241Z,4.40
2019-04-21T05:47:09.631Z,4.50
2019-04-21T05:49:29.349Z,4.70
2019-04-21T05:51:57.483Z,5.00
2019-04-21T05:54:39.623Z,5.20
2019-04-21T05:56:59.825Z,5.40
2019-04-21T05:59:32.367Z,5.60
2019-04-21T06:02:15.150Z,5.70
2019-04-21T06:04:54.758Z,5.90
2019-04-21T06:07:13.710Z,6.00
2019-04-21T06:09:37.234Z,6.20
2019-04-21T06:12:06.785Z,6.40
2019-04-21T06:14:39.358Z,6.50
2019-04-21T06:17:11.103Z,6.80
2019-04-21T06:19:44.797Z,7.00
2019-04-21T06:22:06.434Z,7.30
2019-04-21T06:24:43.784Z,7.50
2019-04-21T06:27:08.203Z,7.60
2019-04-21T06:29:39.893Z,7.80
2019-04-21T06:35:04.376Z,8.30
2019-04-21T06:37:34.975Z,8.50
2019-04-21T06:39:51.659Z,8.60
2019-04-21T06:42:10.875Z,8.80
2019-04-21T06:44:48.237Z,8.80
2019-04-21T06:47:16.291Z,8.90
2019-04-21T06:49:41.333Z,9.10
2019-04-21T06:52:29.997Z,9.30
2019-04-21T06:57:12.256Z,9.90
2019-04-21T06:59:41.857Z,10.10
2019-04-21T07:02:35.243Z,10.30
2019-04-21T07:04:46.852Z,10.50
2019-04-21T07:07:14.401Z,10.60
2019-04-21T07:09:45.372Z,10.70
2019-04-21T07:12:14.156Z,10.90
2019-04-21T07:14:44.113Z,11.10
2019-04-21T07:17:20.326Z,11.20
2019-04-21T07:19:49.890Z,11.30
2019-04-21T07:22:23.040Z,11.40
2019-04-21T07:24:43.012Z,11.70
2019-04-21T07:27:16.179Z,11.90
2019-04-21T07:29:47.405Z,12.20
2019-04-21T07:32:18.042Z,12.50
2019-04-21T07:35:03.654Z,13.30
2019-04-21T07:37:12.541Z,14.30
2019-04-21T07:39:43.914Z,14.80
2019-04-21T07:42:15.666Z,15.30
2019-04-21T07:44:44.601Z,16.00
2019-04-21T07:47:15.856Z,16.70
2019-04-21T07:50:07.519Z,17.40
2019-04-21T07:52:28.638Z,18.00
2019-04-21T07:55:12.672Z,18.30
2019-04-21T07:57:28.077Z,18.60
2019-04-21T08:02:33.119Z,19.20
2019-04-21T08:05:07.446Z,19.40
2019-04-21T08:07:41.705Z,19.40
2019-04-21T08:09:58.786Z,19.50
2019-04-21T08:12:24.179Z,19.40
2019-04-21T08:15:13.971Z,19.40
2019-04-21T08:17:30.777Z,19.30
2019-04-21T08:20:00.820Z,19.70
2019-04-21T08:22:34.918Z,19.20
2019-04-21T08:25:03.360Z,19.20
2019-04-21T08:27:37.204Z,19.40
2019-04-21T08:30:05.093Z,19.90
2019-04-21T08:32:49.532Z,20.40
2019-04-21T08:37:43.188Z,20.90
2019-04-21T08:40:20.760Z,21.20
2019-04-21T08:45:22.591Z,21.00
2019-04-21T08:47:52.294Z,21.00
2019-04-21T08:50:22.615Z,21.20
2019-04-21T08:52:56.436Z,21.80
2019-04-21T08:55:50.790Z,22.30
2019-04-21T08:58:25.694Z,21.80
2019-04-21T09:00:57.798Z,21.30
2019-04-21T09:03:21.391Z,21.10
2019-04-21T09:05:57.074Z,21.70
2019-04-21T09:08:28.125Z,21.50
2019-04-21T09:10:52.905Z,21.50
2019-04-21T09:13:24.862Z,21.90
2019-04-21T09:15:52.425Z,22.40
2019-04-21T09:18:18.557Z,22.70
2019-04-21T09:21:00.051Z,22.60
2019-04-21T09:23:26.157Z,22.60
2019-04-21T09:25:58.837Z,22.00
2019-04-21T09:28:19.889Z,22.00
2019-04-21T09:30:42.167Z,21.90
2019-04-21T09:33:09.276Z,22.10
2019-04-21T09:35:40.662Z,21.90
2019-04-21T09:38:19.576Z,21.70
2019-04-21T09:40:45.464Z,22.40
2019-04-21T09:43:12.990Z,22.20
2019-04-21T09:45:40.742Z,22.30
2019-04-21T09:48:14.060Z,22.00
2019-04-21T09:50:41.353Z,22.30
2019-04-21T09:53:16.751Z,22.80
2019-04-21T09:55:48.691Z,23.00
2019-04-21T09:58:21.801Z,22.80
2019-04-21T10:00:52.192Z,22.80
2019-04-21T10:03:13.652Z,22.80
2019-04-21T10:05:41.841Z,22.80
2019-04-21T10:08:10.551Z,22.70
2019-04-21T10:10:39.989Z,23.10
2019-04-21T10:13:08.920Z,24.00
2019-04-21T10:15:37.752Z,24.00
2019-04-21T10:18:15.045Z,23.70
2019-04-21T10:20:44.785Z,24.50
2019-04-21T10:23:13.737Z,24.60
2019-04-21T10:25:42.882Z,24.60
2019-04-21T10:28:12.855Z,24.00
2019-04-21T10:30:42.628Z,24.10
2019-04-21T10:33:12.532Z,24.50
2019-04-21T10:35:41.474Z,24.90
2019-04-21T10:38:19.891Z,24.50
2019-04-21T10:40:41.484Z,24.70
2019-04-21T10:43:20.670Z,25.10
2019-04-21T10:45:48.824Z,24.70
2019-04-21T10:48:18.817Z,25.20
2019-04-21T10:50:47.471Z,24.80
2019-04-21T10:53:20.852Z,24.50
2019-04-21T10:56:05.796Z,24.20
2019-04-21T10:58:22.532Z,24.10
2019-04-21T11:00:52.843Z,24.00
2019-04-21T11:03:26.880Z,24.30
2019-04-21T11:05:57.176Z,24.90
2019-04-21T11:08:32.590Z,25.20
2019-04-21T11:10:56.215Z,25.90
2019-04-21T11:13:26.244Z,25.70
2019-04-21T11:15:55.246Z,25.90
2019-04-21T11:18:24.078Z,26.50
2019-04-21T11:20:53.170Z,26.60
2019-04-21T11:23:22.494Z,27.00
2019-04-21T11:25:51.724Z,26.90
2019-04-21T11:28:20.699Z,26.10
2019-04-21T11:30:50.861Z,25.90
2019-04-21T11:33:19.733Z,25.80
2019-04-21T11:35:49.017Z,25.90
2019-04-21T11:38:23.598Z,25.70
2019-04-21T11:40:49.824Z,26.20
2019-04-21T11:43:19.753Z,26.20
2019-04-21T11:45:48.596Z,26.70
2019-04-21T11:48:28.423Z,27.20
2019-04-21T11:50:57.449Z,27.40
2019-04-21T11:53:26.199Z,26.40
2019-04-21T11:55:55.546Z,26.30
2019-04-21T11:58:26.222Z,27.40
2019-04-21T12:01:03.461Z,27.80
2019-04-21T12:03:33.527Z,27.80
2019-04-21T12:06:03.669Z,28.50
2019-04-21T12:08:39.246Z,28.50
2019-04-21T12:11:03.235Z,28.10
2019-04-21T12:13:32.337Z,28.10
2019-04-21T12:16:01.074Z,28.10
2019-04-21T12:18:31.927Z,28.90
2019-04-21T12:21:01.198Z,29.00
2019-04-21T12:23:30.354Z,29.10
2019-04-21T12:26:09.987Z,29.20
2019-04-21T12:28:39.826Z,29.20
2019-04-21T12:31:10.152Z,28.40
2019-04-21T12:33:47.729Z,28.60
2019-04-21T12:36:17.764Z,28.70
2019-04-21T12:38:51.924Z,29.20
2019-04-21T12:41:16.721Z,29.10
2019-04-21T12:43:46.507Z,28.90
2019-04-21T12:46:15.938Z,29.10
2019-04-21T12:48:46.099Z,29.40
2019-04-21T12:51:15.551Z,30.00
2019-04-21T12:53:45.573Z,29.50
2019-04-21T12:56:15.682Z,29.20
2019-04-21T12:58:45.249Z,29.70
2019-04-21T13:01:14.742Z,28.90
2019-04-21T13:03:43.754Z,27.90
2019-04-21T13:06:13.773Z,28.30
2019-04-21T13:08:50.929Z,28.50
2019-04-21T13:11:13.175Z,28.80
2019-04-21T13:13:42.184Z,28.40
2019-04-21T13:16:11.597Z,28.50
2019-04-21T13:18:41.536Z,29.30
2019-04-21T13:21:10.313Z,29.70
2019-04-21T13:23:39.114Z,28.90
2019-04-21T13:26:09.484Z,29.00
2019-04-21T13:28:38.351Z,29.50
2019-04-21T13:31:06.952Z,30.20
2019-04-21T13:33:35.631Z,30.30
2019-04-21T13:36:04.944Z,29.70
2019-04-21T13:38:40.512Z,29.40
2019-04-21T13:41:22.783Z,29.40
2019-04-21T13:43:39.351Z,29.90
2019-04-21T13:46:08.350Z,30.30
2019-04-21T13:48:37.279Z,30.20
2019-04-21T13:51:07.150Z,30.20
2019-04-21T13:53:36.268Z,30.20
2019-04-21T13:56:06.895Z,30.40
2019-04-21T13:58:35.954Z,29.70
2019-04-21T14:01:05.662Z,29.70
2019-04-21T14:03:35.462Z,29.00
2019-04-21T14:06:04.591Z,28.90
2019-04-21T14:08:33.623Z,29.00
2019-04-21T14:11:02.277Z,28.80
2019-04-21T14:13:32.176Z,29.50
2019-04-21T14:16:02.150Z,29.20
2019-04-21T14:18:31.010Z,29.00
2019-04-21T14:21:00.914Z,28.30
2019-04-21T14:23:36.028Z,28.10
2019-04-21T14:26:01.640Z,28.70
2019-04-21T14:28:30.371Z,28.90
2019-04-21T14:30:59.122Z,28.50
2019-04-21T14:33:27.981Z,27.70
2019-04-21T14:35:56.814Z,27.70
2019-04-21T14:38:26.775Z,27.70
2019-04-21T14:40:56.464Z,27.70
2019-04-21T14:43:25.988Z,27.90
2019-04-21T14:46:09.078Z,27.70
2019-04-21T14:48:48.690Z,27.90
2019-04-21T14:51:19.080Z,28.00
2019-04-21T14:53:56.342Z,27.80
2019-04-21T14:56:29.159Z,27.40
2019-04-21T14:58:59.497Z,27.40
2019-04-21T15:01:28.414Z,27.20
2019-04-21T15:03:57.543Z,27.10
2019-04-21T15:06:27.399Z,27.10
2019-04-21T15:08:57.433Z,27.00
2019-04-21T15:11:26.404Z,27.10
2019-04-21T15:13:55.927Z,27.00
2019-04-21T15:16:24.976Z,26.60
2019-04-21T15:18:54.709Z,26.90
2019-04-21T15:21:23.597Z,27.40
2019-04-21T15:23:52.169Z,28.10
2019-04-21T15:26:22.016Z,28.10
2019-04-21T15:28:51.043Z,28.30
2019-04-21T15:31:28.778Z,27.70
2019-04-21T15:33:50.252Z,27.10
2019-04-21T15:36:18.865Z,26.80
2019-04-21T15:38:47.866Z,26.20
2019-04-21T15:41:16.594Z,25.20
2019-04-21T15:43:46.681Z,24.80
2019-04-21T15:46:15.394Z,24.30
2019-04-21T15:48:44.745Z,24.30
2019-04-21T15:51:13.742Z,24.10
2019-04-21T15:53:44.041Z,23.80
2019-04-21T15:56:23.032Z,23.80
2019-04-21T15:58:56.745Z,23.70
2019-04-21T16:01:28.701Z,24.10
2019-04-21T16:04:02.101Z,24.30
2019-04-21T16:06:31.904Z,24.40
2019-04-21T16:09:02.513Z,24.20
2019-04-21T16:11:31.637Z,23.90
2019-04-21T16:14:01.808Z,23.60
2019-04-21T16:16:32.669Z,23.50
2019-04-21T16:19:06.114Z,23.40
2019-04-21T16:21:38.390Z,23.10
2019-04-21T16:24:04.578Z,22.50
2019-04-21T16:26:34.978Z,22.20
2019-04-21T16:29:04.922Z,21.70
2019-04-21T16:31:42.689Z,21.30
2019-04-21T16:34:07.235Z,21.00
2019-04-21T16:36:36.024Z,20.80
2019-04-21T16:39:07.364Z,20.60
2019-04-21T16:41:40.334Z,20.50
2019-04-21T16:44:11.333Z,20.30
2019-04-21T16:46:43.264Z,20.20
2019-04-21T16:49:25.441Z,20.10
2019-04-21T16:52:14.097Z,20.00
2019-04-21T16:54:44.419Z,19.90
2019-04-21T16:57:35.569Z,19.80
2019-04-21T17:00:10.780Z,19.70
2019-04-21T17:02:40.589Z,19.60
2019-04-21T17:05:09.967Z,19.40
2019-04-21T17:07:40.830Z,19.30
2019-04-21T17:10:10.707Z,19.20
2019-04-21T17:12:41.748Z,19.00
2019-04-21T17:15:28.233Z,18.90
2019-04-21T17:18:05.512Z,18.80
2019-04-21T17:20:30.055Z,18.70
2019-04-21T17:22:45.724Z,18.50
2019-04-21T17:25:16.124Z,18.40
2019-04-21T17:27:44.980Z,18.30
2019-04-21T17:30:17.094Z,18.20
2019-04-21T17:32:49.546Z,18.20
2019-04-21T17:35:19.353Z,18.00
2019-04-21T17:37:48.082Z,18.00
2019-04-21T17:40:26.170Z,17.90
2019-04-21T17:43:02.027Z,17.80
2019-04-21T17:45:27.032Z,17.70
2019-04-21T17:48:04.612Z,17.50
2019-04-21T17:50:31.766Z,17.40
2019-04-21T17:53:30.441Z,17.30
2019-04-21T17:56:15.276Z,17.20
2019-04-21T17:58:48.679Z,17.00
2019-04-21T18:04:15.562Z,16.80
2019-04-21T18:06:50.186Z,16.60
2019-04-21T18:09:40.450Z,16.50
2019-04-21T18:12:03.136Z,16.30
2019-04-21T18:14:18.994Z,16.20
2019-04-21T18:16:51.649Z,16.10
2019-04-21T18:19:20.561Z,16.10
2019-04-21T18:22:06.518Z,15.90
2019-04-21T18:24:42.803Z,15.90
2019-04-21T18:27:07.445Z,15.80
2019-04-21T18:29:34.689Z,15.70
2019-04-21T18:32:03.575Z,15.50
2019-04-21T18:34:42.821Z,15.40
2019-04-21T18:37:18.598Z,15.30
2019-04-21T18:40:00.847Z,15.20
2019-04-21T18:42:48.130Z,15.00
2019-04-21T18:45:45.484Z,14.90
2019-04-21T18:47:55.467Z,14.80
2019-04-21T18:50:39.129Z,14.70
2019-04-21T18:53:24.142Z,14.50
2019-04-21T18:55:46.453Z,14.50
2019-04-21T18:58:12.460Z,14.40
2019-04-21T19:00:43.477Z,14.30
2019-04-21T19:03:13.408Z,14.20
2019-04-21T19:05:47.780Z,14.10
2019-04-21T19:08:26.434Z,14.00
2019-04-21T19:11:02.535Z,13.80
2019-04-21T19:13:53.580Z,13.60
2019-04-21T19:16:23.932Z,13.60
2019-04-21T19:18:43.350Z,13.40
2019-04-21T19:21:02.714Z,13.40
2019-04-21T19:23:45.702Z,13.30
2019-04-21T19:26:18.963Z,13.20
2019-04-21T19:28:41.938Z,13.10
2019-04-21T19:31:11.045Z,13.00
2019-04-21T19:33:31.002Z,12.90
2019-04-21T19:35:49.656Z,12.80
2019-04-21T19:38:30.576Z,12.80
2019-04-21T19:41:03.999Z,12.60
2019-04-21T19:43:41.718Z,12.50
2019-04-21T19:46:13.900Z,12.50
2019-04-21T19:48:56.566Z,12.40
2019-04-21T19:51:15.053Z,12.30
2019-04-21T19:53:42.104Z,12.10
2019-04-21T19:55:58.305Z,12.00
2019-04-21T19:58:33.005Z,11.90
2019-04-21T20:00:57.647Z,11.70
2019-04-21T20:03:26.420Z,11.60
2019-04-21T20:06:07.095Z,11.40
2019-04-21T20:08:38.916Z,11.30
2019-04-21T20:11:17.982Z,11.30
2019-04-21T20:14:03.353Z,11.20
2019-04-21T20:16:19.115Z,11.10
2019-04-21T20:18:37.908Z,11.00
2019-04-21T20:20:58.663Z,10.80
2019-04-21T20:23:31.944Z,10.60
2019-04-21T20:26:02.418Z,10.40
2019-04-21T20:28:44.342Z,10.20
2019-04-21T20:31:18.889Z,10.10
2019-04-21T20:33:53.910Z,10.00
2019-04-21T20:36:21.360Z,9.90
2019-04-21T20:38:42.242Z,9.90
2019-04-21T20:41:19.710Z,9.70
2019-04-21T20:43:54.286Z,9.60
2019-04-21T20:46:16.664Z,9.40
2019-04-21T20:48:45.257Z,9.40
2019-04-21T20:51:23.530Z,9.30
2019-04-21T20:53:50.603Z,9.20
2019-04-21T20:56:13.216Z,9.10
2019-04-21T20:58:53.836Z,9.00
2019-04-21T21:01:32.246Z,8.90
2019-04-21T21:03:48.909Z,8.80
2019-04-21T21:06:21.813Z,8.70
2019-04-21T21:08:52.202Z,8.60
2019-04-21T21:11:24.247Z,8.50
2019-04-21T21:13:53.235Z,8.40
2019-04-21T21:16:29.713Z,8.40
2019-04-21T21:19:03.747Z,8.30
2019-04-21T21:21:21.764Z,8.30
2019-04-21T21:23:52.739Z,8.10
2019-04-21T21:26:26.422Z,8.00
2019-04-21T21:28:51.989Z,7.90
2019-04-21T21:31:24.881Z,7.90
2019-04-21T21:34:06.314Z,7.70
2019-04-21T21:36:24.696Z,7.70
2019-04-21T21:39:01.382Z,7.60
2019-04-21T21:41:19.975Z,7.50
2019-04-21T21:43:42.160Z,7.40
2019-04-21T21:46:32.378Z,7.30
2019-04-21T21:48:53.616Z,7.20
2019-04-21T21:51:22.818Z,7.20
2019-04-21T21:53:45.366Z,7.10
2019-04-21T21:56:14.526Z,7.10
2019-04-21T21:58:46.142Z,7.10
2019-04-21T22:01:15.718Z,7.00
2019-04-21T22:03:47.267Z,7.00
2019-04-21T22:06:22.681Z,6.90
2019-04-21T22:08:48.313Z,6.90
2019-04-21T22:11:17.991Z,6.80
2019-04-21T22:13:54.787Z,6.80
2019-04-21T22:16:19.960Z,6.70
2019-04-21T22:19:17.014Z,6.70
2019-04-21T22:21:42.871Z,6.60
2019-04-21T22:24:00.244Z,6.60
2019-04-21T22:26:25.091Z,6.50
2019-04-21T22:28:53.992Z,6.50
2019-04-21T22:31:26.887Z,6.40
2019-04-21T22:33:55.754Z,6.30
2019-04-21T22:36:36.556Z,6.30
2019-04-21T22:39:17.638Z,6.20
2019-04-21T22:41:31.006Z,6.20
2019-04-21T22:43:55.567Z,6.20
2019-04-21T22:46:24.409Z,6.10
2019-04-21T22:48:57.154Z,6.10
2019-04-21T22:51:30.528Z,6.00
2019-04-21T22:53:55.831Z,6.00
2019-04-21T22:56:29.625Z,5.90
2019-04-21T22:58:55.004Z,5.80
2019-04-21T23:01:34.644Z,5.80
2019-04-21T23:04:00.383Z,5.70
2019-04-21T23:06:29.057Z,5.70
2019-04-21T23:08:56.959Z,5.70
2019-04-21T23:11:28.108Z,5.60
2019-04-21T23:14:03.745Z,5.60
2019-04-21T23:16:35.274Z,5.60
2019-04-21T23:19:17.011Z,5.50
2019-04-21T23:21:51.465Z,5.50
2019-04-21T23:24:14.831Z,5.40
2019-04-21T23:26:41.962Z,5.40
2019-04-21T23:29:17.362Z,5.40
2019-04-21T23:31:51.761Z,5.50
2019-04-21T23:34:00.213Z,5.50
2019-04-21T23:36:32.227Z,5.40
2019-04-21T23:38:59.041Z,5.30
2019-04-21T23:41:39.040Z,5.20
2019-04-21T23:44:05.810Z,5.20
2019-04-21T23:46:34.417Z,5.10
2019-04-21T23:49:15.050Z,5.10
2019-04-21T23:51:41.080Z,5.00
2019-04-21T23:54:01.618Z,5.00
2019-04-21T23:56:36.830Z,4.90
2019-04-21T23:59:04.126Z,4.90
